Skip Navigation Links Skip Navigation Links

Current Weather

Kansas City Intl, Kansas City, Mo.

For information only: do not use for flight planning or navigation.
Latest weather
Observation time Monday, October 18, 2021 2:53 PM CDT
Local time Monday, October 18, 2021 3:20 PM CDT
Flight conditions Visual Meteorological Conditions
Winds
Wind direction South (190°)
Wind speed 17 mph
Visibility 10 mi.
Sky condition
Ceiling unlimited
Cloud layer few clouds 25,000 ft.
Temperature 73°F
Dewpoint 42°F
Altimeter 30.02 in.Hg
Derived measurements
Relative humidity 33%
Density altitude 1956 ft.
Sea-level pressure 30.01 in.Hg
Remarks
Automated weather observing station with precipitation discriminator.
METAR KMCI 181953Z 19015KT 10SM FEW250 23/06 A3002 RMK AO2 SLP162 T02280056

Settings

Location code

InnerDrive.Weather 4.0.6770.0 Release CLR 4.0.30319.42000
Copyright ©2018 Inner Drive Technology. All rights reserved. Portions Copyright ©1986-2018 David Braverman.

Find weather

Site navigation


Skip Navigation Links

Place info

Page info

PayPal - The safer, easier way to pay online!

Return home.

Copyright ©2021 Inner Drive Technology. Purveyors of fine, hand-crafted computer software. Page printed 2021-10-18T20:20:35 UTC.